Terminal Aerodrome Forecast
Issued by NWS Jackson, MS

Home | Current Version | Previous Version | Text Only | Print | Product List | Glossary On
Versions: 1 2 3 4 5 6 7 8 9 10 11 12 13 14 15 16
274
FTUS44 KJAN 011912 AAA
TAFGWO
TAF AMD
KGWO 011912Z 0119/0218 20010KT P6SM VCSH SCT050 BKN200
     FM020000 14005KT P6SM SCT030 OVC100
     FM021600 35008KT 5SM -RA BR OVC015=

USA.gov is the U.S. government's official web portal to all federal, state and local government web resources and services.